メインページ
METAR-TAF:

METAR-TAF

空港 :

平壌, 朝鮮民主主義人民共和国

平壌国際空港

緯度: 39-02N, 経度: 125-47E, 海抜: 36m

METAR: 見つかりません

時間: 14:52 (06:22 UTC)

予報

当レポートは1時間42分前の04:40(UTC)に作成
予報は14日の 06時(UTC)から 15日の 06時(UTC)まで有効
西/北西の風 8kt
視程: 4000m
14日の 10時(UTC)から 14日の 12時(UTC)まで徐々に
西の風 8kt
視程: 2000m
高度2000ftの雲は散在している
高度4000ftの千切れ雲あり

TAF: ZKPY 140440Z 1406/1506 29004MPS 4000 BR NSC BECMG 1410/1412 26004MPS 2000 BR SCT020 BKN040 TXM04/1406Z TNM12/1422Z

4,000以上の空港の気象観測と天気予報(METAR報とTAF報)

利用可能な観測所は地図上に黄色い丸と赤い丸で示す。

丸の上にカーソルを重ねると観測所名を参照できる。

次にクリックすると気象観測と天気予報を参照できる。

マップの切り替え:黒色「×」印の緑ボタンをクリックして拡大、「-」印の緑ボタンをクリックして縮小、緑色の三角印をクリックして隣りの地図に切り替え


METAR-TAF: